Misquamicut, Rhode Island
Current Conditions -  °F | °C
As of 6:53 PM on Monday 22 Dec 2014 (Local Time) from KWST Reporting Station
Overcast Overcast  
Wind Chill: 40°   Ceiling: 1700
Heat Index: 44°   Visibility: 10mi
Dew Point: 39°   Wind: 7mph
Humidity: 82%   Direction: 60°ENE
Pressure: 30.28"   Gusts: NA
Location:  41.3616°N, 71.7933°W
Report Text: KWST 222353Z AUTO 06006KT 10SM BKN017 OVC055 07/04 A3028 RMK AO2 SLP255 T00670039 10089 20061 50002
Loading
Personal Weather Stations






























Interactive Weather Map New forecast layout! Learn more

10-Day Weather Forecast

Advertisements
Track Severe Weather on mobile